Burley, ID (83318)

12:26 PM MDT on April 28, 2015 (GMT -0600)
Heyburn | | Change Station
CLOSE
Current Station
Personal Weather Station
Location: Heyburn, ID
Elevation: 4157 ft
Nearby Weather Stations

Elev 4157 ft 42.56 °N, 113.78 °W | Updated 22 seconds ago

Clear
Clear
69.6 °F
Feels Like 69.6 °F
N
4.4
Wind Variable Wind from NE
Gusts 4.7 mph

Today
High -- | Low -- °F
--% Chance of Precip.
Yesterday
High -- | Low -- °F
Precip. -- in
6:34 AM 8:31 PM
Waxing Gibbous, 75% visible
Pressure 30.14 in
Visibility 10.0 miles
Clouds Clear
Dew Point 35 °F
Humidity 28%
Rainfall 0.00 in
Snow Depth Not available.
UV 9 out of 12
Pollen 9.40 out of 12
Air Quality Not available.
Flu Activity Sporadic
METAR KBYI 281753Z AUTO 08004KT 10SM CLR 18/M01 A3019 RMK AO2 SLP207 T01781011 10183 21017 58014

More Conditions Fewer Conditions

Pressure 30.14 in
Visibility 10.0 miles
Clouds Clear
Dew Point 35 °F
Humidity 28%
Rainfall 0.00 in
Snow Depth Not available.
UV 9 out of 12
Pollen 9.40 out of 12
Air Quality Not available.
Flu Activity Sporadic
METAR KBYI 281753Z AUTO 08004KT 10SM CLR 18/M01 A3019 RMK AO2 SLP207 T01781011 10183 21017 58014

More Conditions Fewer Conditions

10-Day Weather Forecast

Almanac

Astronomy

Apr. 28, 2015 Rise Set
Actual Time
Civil Twilight
Nautical Twilight
Astronomical Twilight
Moon
Length of Visible Light
Length of Day
Tomorrow will be .
, % of the Moon is Illuminated

Today's Extremes

State Highs State Lows

Community

WunderPhotos

Upload Photos

1,817,720 photos uploaded!

WunderBlogs® & News

Nearby

Air Quality

  Air Quality AQ Index Pollutant
Not available.

Snow Depth

Station Depth Elevation

Earthquake Activity

City Distance Mag. Time & Date
Minimum magnitude displayed is 2.5.

Coastal Water Temperatures

Place Temperature

Stations

Nearby Weather Stations

Station Location Temp. Windchill Dew Point Humidity Wind Precip. Elev Updated Type